Ohley, West Virginia
Current Conditions -  °F | °C
As of 8:54 AM on Thursday 18 Dec 2014 (Local Time) from KCRW Reporting Station
Overcast Overcast  
Wind Chill: 24°   Ceiling: 2400
Heat Index: 29°   Visibility: 10mi
Dew Point: 21°   Wind: 5mph
Humidity: 72%   Direction: 350°N
Pressure: 30.25"   Gusts: NA
Location:  38.11°N, 81.45°W
Report Text: KCRW 181354Z 35004KT 10SM OVC024 M02/M06 A3025 RMK AO2 SLP253 T10171061
Loading
Personal Weather Stations






























Interactive Weather Map New forecast layout! Learn more

10-Day Weather Forecast

Advertisements
Track Severe Weather on mobile